Portada
METAR-TAF:

METAR-TAF

Aeroports :

Florianópolis, Santa Catarina, Brasil

latitud: 27-40S, longitud: 048-33W, altitud: 5 m

Observació

L'informe es va fer fa 19 minuts, a les 08:00 UTC
Vent 3 kt del Nord-Est
Temperatura 20°C
Humitat 100%
Pressió 1010 hPa
Visibilitat: 5000 m
Núvols disperses a una alçada de 1000 ft
Cel ennuvolat a una alçada de 2000 ft
pluja

METAR: SBFL 230800Z 04003KT 5000 -RA SCT010 BKN020 20/20 Q1010

Hora: 05:19 (08:19 UTC)

Pronòstic

L'informe es va fer fa 6 hores i 49 minuts, a les 01:30 UTC
Pronòstic vàlid del 23 a les 06 UTC al 24 a les 06 UTC
Vent 7 kt del Sud
Visibilitat 10 km o més
Cel ennuvolat a una alçada de 2500 ft
Temporalment
l' 23 a les 06 UTC al 23 a les 18 UTC
Visibilitat: 7000 m
Cel ennuvolat a una alçada de 1000 ft
Cel ennuvolat a una alçada de 2000 ft
pluja

TAF: SBFL 230130Z 2306/2406 18007KT 9999 BKN025 TN21/2308Z TX24/2318Z TEMPO 2306/2318 7000 RA BKN010 BKN020 RMK PEB

Observacions i pronòstics meteorològics de més de 4000 aeroports (METAR i TAF).

Les estacions disponibles són els punts grocs i vermells al mapa.

Posi el ratolí al punt desitjat per veure el nom de l'estació.

Feu clic per veure les observacions i els pronòstics meteorològics.

Per canviar el mapa: feu clic els botons verds amb una creu de color negre per apropar; al botó verd amb un guió per allunyar la imatge; o en les fletxes verdes per a mapes adjacents.


METAR-TAF: